Time;durP1;ratioP1;P1;durP2;ratioP2;P2;SDS_P1;SDS_P2;PMS_P1;PMS_P2;Temp;Humidity;BMP_temperature;BMP_pressure;BME280_temperature;BME280_humidity;BME280_pressure;Samples;Min_cycle;Max_cycle;Signal;HPM_P1;HPM_P2
2022/10/03 00:01:41;;;;;;;15.68;5.18;;;;;;;;;;4934321;29;20507;-88
2022/10/03 00:04:10;;;;;;;17.77;5.90;;;;;;;;;;4934446;29;20059;-87
2022/10/03 00:06:50;;;;;;;14.05;5.68;;;;;;;;;;4934679;29;20031;-88
2022/10/03 00:09:39;;;;;;;13.55;5.35;;;;;;;;;;4933756;29;20024;-87
2022/10/03 00:12:29;;;;;;;16.63;4.85;;;;;;;;;;4929645;29;20040;-87
2022/10/03 00:15:01;;;;;;;14.38;5.50;;;;;;;;;;4899135;29;20056;-88
2022/10/03 00:17:27;;;;;;;20.48;6.10;;;;;;;;;;4915467;29;20090;-88
2022/10/03 00:19:53;;;;;;;17.58;6.15;;;;;;;;;;4915989;29;20485;-88
2022/10/03 00:22:19;;;;;;;17.58;6.13;;;;;;;;;;4914510;29;20024;-89
2022/10/03 00:25:00;;;;;;;20.48;5.82;;;;;;;;;;4914945;29;20044;-89
2022/10/03 00:27:36;;;;;;;15.25;5.60;;;;;;;;;;4927604;29;20034;-89
2022/10/03 00:30:21;;;;;;;14.25;5.85;;;;;;;;;;4935110;29;20078;-88
2022/10/03 00:33:06;;;;;;;15.57;6.40;;;;;;;;;;4921981;29;20039;-87
2022/10/03 00:35:51;;;;;;;16.58;6.38;;;;;;;;;;4934653;29;20036;-88
2022/10/03 00:38:40;;;;;;;22.08;7.05;;;;;;;;;;4933879;29;20640;-89
2022/10/03 00:41:20;;;;;;;13.45;5.80;;;;;;;;;;4928560;29;20048;-84
2022/10/03 00:44:00;;;;;;;17.40;6.18;;;;;;;;;;4933804;29;20555;-88
2022/10/03 00:46:29;;;;;;;19.98;5.93;;;;;;;;;;4931635;29;20032;-88
2022/10/03 00:48:58;;;;;;;13.10;5.22;;;;;;;;;;4933135;29;20031;-88
2022/10/03 00:51:33;;;;;;;24.98;5.35;;;;;;;;;;4932458;29;20064;-88
2022/10/03 00:54:07;;;;;;;24.42;5.85;;;;;;;;;;4931786;29;20032;-88
2022/10/03 00:56:34;;;;;;;18.65;5.65;;;;;;;;;;4919562;29;20065;-88
2022/10/03 00:59:09;;;;;;;14.45;5.35;;;;;;;;;;4914926;29;20028;-88
2022/10/03 01:01:39;;;;;;;15.95;4.78;;;;;;;;;;4915568;29;20059;-90
2022/10/03 01:04:05;;;;;;;11.52;5.18;;;;;;;;;;4916747;29;20119;-89
2022/10/03 01:06:34;;;;;;;20.10;5.22;;;;;;;;;;4929850;29;20031;-89
2022/10/03 01:09:15;;;;;;;15.88;5.43;;;;;;;;;;4927589;29;20031;-89
2022/10/03 01:12:05;;;;;;;16.48;5.40;;;;;;;;;;4933909;29;20106;-90
2022/10/03 01:14:52;;;;;;;22.35;5.60;;;;;;;;;;4931819;29;20420;-89
2022/10/03 01:17:33;;;;;;;14.02;5.25;;;;;;;;;;4933039;29;20111;-89
2022/10/03 01:20:11;;;;;;;21.08;5.10;;;;;;;;;;4920024;29;20028;-90
2022/10/03 01:22:46;;;;;;;13.77;4.85;;;;;;;;;;4917487;29;20428;-88
2022/10/03 01:25:15;;;;;;;19.25;5.93;;;;;;;;;;4928083;29;20077;-88
2022/10/03 01:30:21;;;;;;;16.38;5.50;;;;;;;;;;4932645;29;20038;-90
2022/10/03 01:30:29;;;;;;;22.25;5.70;;;;;;;;;;4921701;29;20040;-90
2022/10/03 01:33:14;;;;;;;14.70;5.13;;;;;;;;;;4913597;29;20028;-88
2022/10/03 01:35:52;;;;;;;16.88;5.10;;;;;;;;;;4930040;29;20074;-88
2022/10/03 01:38:24;;;;;;;16.98;5.72;;;;;;;;;;4931942;29;20047;-89
2022/10/03 01:41:01;;;;;;;19.23;5.57;;;;;;;;;;4932931;29;20456;-89
2022/10/03 01:43:37;;;;;;;16.98;5.57;;;;;;;;;;4933291;29;20032;-89
2022/10/03 01:46:11;;;;;;;22.42;6.35;;;;;;;;;;4928077;29;20039;-90
2022/10/03 01:48:47;;;;;;;18.33;5.65;;;;;;;;;;4925906;29;20062;-88
2022/10/03 01:51:16;;;;;;;17.38;5.18;;;;;;;;;;4915279;29;20076;-89
2022/10/03 01:54:00;;;;;;;20.27;5.53;;;;;;;;;;4914255;29;20020;-89
2022/10/03 01:56:35;;;;;;;15.95;5.43;;;;;;;;;;4914347;29;20032;-89
2022/10/03 01:59:22;;;;;;;21.85;5.75;;;;;;;;;;4914230;29;20028;-90
2022/10/03 02:01:55;;;;;;;17.58;5.50;;;;;;;;;;4914310;29;20115;-90
2022/10/03 02:04:24;;;;;;;20.58;6.18;;;;;;;;;;4914220;29;20036;-89
2022/10/03 02:06:54;;;;;;;21.30;6.63;;;;;;;;;;4915702;29;20036;-89
2022/10/03 02:09:29;;;;;;;17.73;6.32;;;;;;;;;;4914578;29;20033;-89
2022/10/03 02:12:02;;;;;;;18.92;7.25;;;;;;;;;;4924215;29;20038;-90
2022/10/03 02:14:40;;;;;;;24.95;7.30;;;;;;;;;;4927370;29;20039;-89
2022/10/03 02:17:15;;;;;;;21.63;7.32;;;;;;;;;;4934323;29;20032;-89
2022/10/03 02:19:47;;;;;;;26.88;7.20;;;;;;;;;;4927728;29;20028;-84
2022/10/03 02:22:15;;;;;;;32.50;8.57;;;;;;;;;;4933352;29;20055;-89
2022/10/03 02:24:55;;;;;;;23.35;7.75;;;;;;;;;;4933177;29;20043;-85
2022/10/03 02:27:34;;;;;;;22.85;7.75;;;;;;;;;;4934190;29;20028;-88
2022/10/03 02:30:00;;;;;;;38.88;10.25;;;;;;;;;;4938475;29;20023;-88
2022/10/03 02:32:45;;;;;;;28.05;8.13;;;;;;;;;;4929478;29;20026;-89
2022/10/03 02:35:17;;;;;;;33.88;9.90;;;;;;;;;;4924979;29;20047;-88
2022/10/03 02:38:01;;;;;;;37.20;10.43;;;;;;;;;;4914247;29;20032;-88
2022/10/03 02:40:47;;;;;;;36.17;11.18;;;;;;;;;;4917478;29;20032;-90
2022/10/03 02:43:32;;;;;;;48.10;12.20;;;;;;;;;;4924955;29;20024;-87
2022/10/03 02:46:20;;;;;;;29.13;10.50;;;;;;;;;;4929658;29;20051;-87
2022/10/03 02:49:05;;;;;;;32.05;10.88;;;;;;;;;;4923035;29;20031;-87
2022/10/03 02:51:50;;;;;;;27.88;10.32;;;;;;;;;;4923292;29;20111;-85
2022/10/03 02:54:42;;;;;;;39.28;10.80;;;;;;;;;;4926890;29;20032;-86
2022/10/03 02:57:10;;;;;;;30.65;10.80;;;;;;;;;;4912814;29;20036;-88
2022/10/03 02:59:43;;;;;;;27.40;9.88;;;;;;;;;;4935257;29;20408;-87
2022/10/03 03:02:24;;;;;;;30.05;10.48;;;;;;;;;;4935798;29;20034;-87
2022/10/03 03:05:09;;;;;;;34.03;10.27;;;;;;;;;;4935357;29;20035;-89
2022/10/03 03:07:54;;;;;;;29.92;11.40;;;;;;;;;;4935191;29;20032;-86
2022/10/03 03:10:39;;;;;;;30.98;12.05;;;;;;;;;;4935091;29;20032;-89
2022/10/03 03:13:17;;;;;;;29.00;11.52;;;;;;;;;;4934638;29;20034;-88
2022/10/03 03:15:43;;;;;;;;;;;;;;;;;;4930135;29;20087;-89
2022/10/03 03:18:12;;;;;;;26.23;12.00;;;;;;;;;;4935786;29;20371;-88
2022/10/03 03:20:56;;;;;;;29.88;12.10;;;;;;;;;;4934420;29;20404;-88
2022/10/03 03:23:35;;;;;;;26.23;11.00;;;;;;;;;;4929408;29;20032;-87
2022/10/03 03:26:19;;;;;;;24.67;11.60;;;;;;;;;;4923931;29;20035;-88
2022/10/03 03:28:56;;;;;;;26.50;10.20;;;;;;;;;;4927819;29;20038;-89
2022/10/03 03:31:28;;;;;;;29.35;11.68;;;;;;;;;;4930755;29;20401;-87
2022/10/03 03:34:03;;;;;;;27.60;11.43;;;;;;;;;;4924347;29;20110;-86
2022/10/03 03:36:48;;;;;;;25.33;10.73;;;;;;;;;;4923275;29;20059;-88
2022/10/03 03:39:17;;;;;;;29.80;11.13;;;;;;;;;;4940222;28;20030;-88
2022/10/03 03:41:53;;;;;;;32.78;11.68;;;;;;;;;;4927350;29;20054;-87
2022/10/03 03:44:30;;;;;;;27.25;11.40;;;;;;;;;;4922356;29;20114;-88
2022/10/03 03:47:07;;;;;;;27.42;11.88;;;15.40;99.90;;;;;;4923956;29;20091;-89
2022/10/03 03:49:56;;;;;;;27.00;10.95;;;15.40;99.90;;;;;;4924665;29;20036;-90
2022/10/03 03:52:58;;;;;;;23.95;10.52;;;15.30;99.90;;;;;;4927907;29;20060;-88
2022/10/03 03:55:39;;;;;;;28.13;10.82;;;15.20;99.90;;;;;;4922796;29;20042;-89
2022/10/03 03:58:20;;;;;;;23.85;11.05;;;15.10;99.90;;;;;;4923747;29;22107;-93
2022/10/03 04:01:02;;;;;;;21.25;11.38;;;15.10;99.90;;;;;;4930417;29;20075;-90
2022/10/03 04:03:48;;;;;;;31.90;11.90;;;15.10;99.90;;;;;;4930055;29;20083;-91
2022/10/03 04:06:55;;;;;;;29.35;12.40;;;15.00;99.90;;;;;;4934064;29;20031;-91
2022/10/03 04:09:54;;;;;;;25.98;12.30;;;15.10;99.90;;;;;;4934086;29;20023;-92
2022/10/03 04:12:41;;;;;;;36.15;12.23;;;15.20;99.90;;;;;;4935090;29;20028;-91
2022/10/03 04:15:27;;;;;;;29.33;13.48;;;15.30;99.90;;;;;;4932011;29;20068;-92
2022/10/03 04:21:09;;;;;;;29.13;13.05;;;15.40;99.90;;;;;;4903178;29;20043;-91
2022/10/03 04:23:59;;;;;;;28.40;13.20;;;15.50;99.90;;;;;;4915732;29;20500;-90
2022/10/03 04:26:48;;;;;;;114.60;12.57;;;15.40;99.90;;;;;;4913537;29;20064;-90
2022/10/03 04:29:26;;;;;;;24.23;10.40;;;16.20;99.90;;;;;;4926162;29;20051;-91
2022/10/03 04:32:10;;;;;;;;;;;15.60;99.90;;;;;;4925596;29;20110;-89
2022/10/03 04:35:17;;;;;;;60.63;11.15;;;15.60;99.90;;;;;;4924508;29;19946;-92
2022/10/03 04:37:57;;;;;;;28.70;10.18;;;15.60;99.90;;;;;;4896695;29;20046;-89
2022/10/03 04:40:53;;;;;;;16.42;9.27;;;15.90;99.90;;;;;;4925972;29;20023;-90
2022/10/03 04:43:39;;;;;;;20.85;10.63;;;15.60;99.90;;;;;;4922845;29;20091;-88
2022/10/03 04:46:26;;;;;;;23.92;9.27;;;15.60;99.90;;;;;;4932833;29;20039;-89
2022/10/03 04:49:02;;;;;;;20.85;9.82;;;15.80;99.90;;;;;;4925172;29;20425;-91
2022/10/03 04:51:35;;;;;;;15.15;9.30;;;15.50;99.90;;;;;;4928221;29;20030;-87
2022/10/03 04:54:26;;;;;;;16.25;8.73;;;15.70;99.90;;;;;;4928236;29;20042;-90
2022/10/03 04:57:24;;;;;;;14.57;8.80;;;15.70;99.90;;;;;;4911861;29;20055;-89
2022/10/03 04:59:56;;;;;;;14.55;8.55;;;15.60;99.90;;;;;;4896050;29;20043;-89
2022/10/03 05:02:55;;;;;;;21.05;9.45;;;15.50;99.90;;;;;;4928940;29;20027;-92
2022/10/03 05:05:46;;;;;;;21.33;9.95;;;15.70;99.90;;;;;;4917127;29;20040;-88
2022/10/03 05:08:15;;;;;;;22.13;9.30;;;;;;;;;;4918726;29;20131;-89
2022/10/03 05:10:45;;;;;;;24.83;10.18;;;;;;;;;;4921063;29;20035;-89
2022/10/03 05:13:19;;;;;;;20.75;9.55;;;;;;;;;;4929958;29;20444;-89
2022/10/03 05:15:54;;;;;;;27.05;10.35;;;;;;;;;;4924062;29;20126;-88
2022/10/03 05:18:26;;;;;;;22.30;9.32;;;;;;;;;;4921030;29;20118;-89
2022/10/03 05:20:56;;;;;;;32.08;10.82;;;;;;;;;;4928604;29;20035;-89
2022/10/03 05:23:35;;;;;;;16.58;9.93;;;;;;;;;;4931713;29;20034;-88
2022/10/03 05:26:06;;;;;;;;;;;15.50;99.90;;;;;;4931257;29;20142;-89
2022/10/03 05:29:00;;;;;;;17.42;9.55;;;15.50;99.90;;;;;;4931422;29;19911;-93
2022/10/03 05:31:43;;;;;;;16.17;9.65;;;15.40;99.90;;;;;;4925182;29;20035;-88
2022/10/03 05:34:46;;;;;;;19.10;10.07;;;15.40;99.90;;;;;;4915161;29;20119;-89
2022/10/03 05:37:12;;;;;;;14.13;9.02;;;;;;;;;;4921690;29;20130;-89
2022/10/03 05:40:23;;;;;;;20.60;10.05;;;15.40;99.90;;;;;;4929051;29;20118;-88
2022/10/03 05:42:54;;;;;;;16.58;10.27;;;;;;;;;;4932061;29;20028;-90
2022/10/03 05:45:30;;;;;;;21.50;9.73;;;15.40;99.90;;;;;;4923335;29;20047;-89
2022/10/03 05:47:56;;;;;;;15.45;9.57;;;;;;;;;;4928247;29;20039;-89
2022/10/03 05:50:35;;;;;;;16.48;9.68;;;15.40;99.90;;;;;;4928845;29;20028;-89
2022/10/03 05:53:19;;;;;;;16.20;10.50;;;15.40;99.90;;;;;;4922126;29;20024;-88
2022/10/03 05:56:01;;;;;;;16.58;10.48;;;15.50;99.90;;;;;;4910964;29;20501;-89
2022/10/03 05:58:53;;;;;;;19.52;11.43;;;15.50;99.90;;;;;;4924824;29;20509;-88
2022/10/03 06:01:28;;;;;;;22.08;12.00;;;15.40;99.90;;;;;;4928779;29;20484;-89
2022/10/03 06:03:59;;;;;;;21.30;12.27;;;14.30;99.90;;;;;;4931090;29;20064;-89
2022/10/03 06:06:43;;;;;;;22.17;12.43;;;15.50;99.90;;;;;;4931368;29;20512;-88
2022/10/03 06:09:14;;;;;;;22.88;11.60;;;15.50;99.90;;;;;;4930855;29;20027;-88
2022/10/03 06:11:43;;;;;;;21.75;12.02;;;15.60;99.90;;;;;;4928851;29;20028;-89
2022/10/03 06:14:14;;;;;;;;;;;15.50;99.90;;;;;;4932771;29;20036;-88
2022/10/03 06:17:02;;;;;;;30.17;13.15;;;15.60;99.90;;;;;;4923180;29;20324;-88
2022/10/03 06:19:55;;;;;;;25.45;13.25;;;15.60;99.90;;;;;;4919345;29;20019;-88
2022/10/03 06:22:33;;;;;;;24.98;12.65;;;15.60;99.90;;;;;;4923199;29;20032;-89
2022/10/03 06:25:39;;;;;;;22.70;12.38;;;15.60;99.90;;;;;;4914997;29;20036;-89
2022/10/03 06:28:20;;;;;;;23.33;12.50;;;15.70;99.90;;;;;;4915005;29;20036;-88
2022/10/03 06:31:13;;;;;;;19.73;12.02;;;15.70;99.90;;;;;;4925296;29;20040;-89
2022/10/03 06:34:24;;;;;;;21.85;11.90;;;15.70;99.90;;;;;;4920112;29;20024;-89
2022/10/03 06:36:54;;;;;;;24.92;12.75;;;15.80;99.90;;;;;;4905274;29;20040;-89
2022/10/03 06:39:27;;;;;;;24.88;12.45;;;15.80;99.90;;;;;;4934889;29;20504;-88
2022/10/03 06:42:29;;;;;;;23.38;12.52;;;15.90;99.90;;;;;;4934368;29;20437;-89
2022/10/03 06:45:10;;;;;;;22.98;11.73;;;15.90;99.90;;;;;;4935477;29;20043;-89
2022/10/03 06:47:46;;;;;;;22.70;11.93;;;15.90;99.90;;;;;;4935458;29;20039;-89
2022/10/03 06:50:17;;;;;;;23.55;12.32;;;15.90;99.90;;;;;;4933956;29;20024;-89
2022/10/03 06:53:10;;;;;;;20.10;11.88;;;16.00;99.90;;;;;;4934475;29;20095;-88
2022/10/03 06:56:14;;;;;;;21.80;12.02;;;16.00;99.90;;;;;;4919394;29;20024;-89
2022/10/03 06:58:57;;;;;;;20.42;10.57;;;16.00;99.90;;;;;;4824170;29;20036;-89
2022/10/03 07:01:42;;;;;;;23.55;11.30;;;16.00;99.90;;;;;;4909928;29;20040;-89
2022/10/03 07:04:38;;;;;;;17.63;10.48;;;16.00;99.90;;;;;;4914833;29;20035;-89
2022/10/03 07:07:37;;;;;;;15.57;9.95;;;16.10;99.90;;;;;;4916193;29;20401;-89
2022/10/03 07:10:31;;;;;;;20.17;10.18;;;16.00;99.90;;;;;;4914790;29;20028;-88
2022/10/03 07:13:06;;;;;;;26.80;11.10;;;16.10;99.90;;;;;;4914498;29;20488;-89
2022/10/03 07:16:07;;;;;;;19.23;10.02;;;16.20;99.90;;;;;;4914784;29;20118;-88
2022/10/03 07:19:05;;;;;;;22.63;9.85;;;16.20;99.90;;;;;;4917339;29;20032;-88
2022/10/03 07:22:21;;;;;;;18.98;9.82;;;16.20;99.90;;;;;;4913958;29;20110;-89
2022/10/03 07:25:18;;;;;;;21.80;9.30;;;16.30;99.90;;;;;;4842088;29;20180;-88
2022/10/03 07:28:12;;;;;;;18.17;9.80;;;16.20;99.90;;;;;;4857533;29;20037;-88
2022/10/03 07:30:47;;;;;;;18.77;9.48;;;16.30;99.90;;;;;;4897949;29;20032;-89
2022/10/03 07:33:31;;;;;;;22.75;9.30;;;16.30;99.90;;;;;;4914236;29;20028;-88
2022/10/03 07:39:28;;;;;;;14.60;8.75;;;16.40;99.90;;;;;;4916524;29;20043;-89
2022/10/03 07:42:15;;;;;;;21.33;8.43;;;16.50;99.90;;;;;;4915291;29;20035;-89
2022/10/03 07:45:07;;;;;;;18.83;8.65;;;16.50;99.90;;;;;;4915504;29;20032;-89
2022/10/03 07:48:00;;;;;;;14.65;8.00;;;16.60;99.90;;;;;;4918940;29;20035;-88
2022/10/03 07:50:50;;;;;;;19.88;8.30;;;16.70;99.90;;;;;;4936281;29;20054;-89
2022/10/03 07:53:31;;;;;;;13.95;8.02;;;16.70;99.90;;;;;;4936499;29;20444;-88
2022/10/03 07:56:26;;;;;;;17.45;8.13;;;16.70;99.90;;;;;;4931735;29;20030;-90
2022/10/03 07:59:40;;;;;;;18.20;8.13;;;16.70;99.90;;;;;;4929342;29;20042;-89
2022/10/03 08:02:43;;;;;;;18.45;8.18;;;16.70;99.90;;;;;;4934864;29;20485;-89
2022/10/03 08:05:36;;;;;;;12.77;7.78;;;16.70;99.90;;;;;;4933824;29;20114;-89
2022/10/03 08:08:20;;;;;;;15.48;7.90;;;16.70;99.90;;;;;;4929523;29;20067;-89
2022/10/03 08:11:24;;;;;;;16.60;7.50;;;16.10;99.90;;;;;;4932420;29;20063;-89
2022/10/03 08:14:02;;;;;;;23.58;8.30;;;16.80;99.90;;;;;;4915434;29;20499;-89
2022/10/03 08:16:42;;;;;;;18.65;8.27;;;16.90;99.90;;;;;;4913767;29;20043;-89
2022/10/03 08:19:27;;;;;;;17.90;8.77;;;16.90;99.90;;;;;;4929376;29;20040;-89
2022/10/03 08:22:08;;;;;;;19.17;8.38;;;17.00;99.90;;;;;;4915364;29;20056;-89
2022/10/03 08:24:57;;;;;;;21.42;8.52;;;17.00;99.90;;;;;;4914524;29;20068;-89
2022/10/03 08:27:47;;;;;;;18.88;7.95;;;16.90;99.90;;;;;;4894056;29;20047;-89
2022/10/03 08:30:30;;;;;;;17.88;7.57;;;17.00;99.90;;;;;;4912951;29;20063;-89
2022/10/03 08:33:07;;;;;;;27.02;7.68;;;17.00;99.90;;;;;;4914125;29;20028;-88
2022/10/03 08:36:05;;;;;;;16.73;7.25;;;17.10;99.90;;;;;;4914412;29;20497;-88
2022/10/03 08:38:46;;;;;;;13.43;6.93;;;17.10;99.90;;;;;;4929910;29;20465;-88
2022/10/03 08:41:48;;;;;;;13.02;7.38;;;17.20;99.90;;;;;;4930961;29;20056;-88
2022/10/03 08:44:42;;;;;;;22.02;7.45;;;17.20;99.90;;;;;;4932980;29;20027;-88
2022/10/03 08:47:30;;;;;;;23.63;7.45;;;17.30;99.90;;;;;;4933008;29;20095;-89
2022/10/03 08:49:59;;;;;;;18.67;6.90;;;17.30;99.90;;;;;;4932585;29;20031;-89
2022/10/03 08:52:28;;;;;;;21.95;6.93;;;17.30;99.90;;;;;;4932368;29;20451;-89
2022/10/03 08:55:18;;;;;;;17.75;6.63;;;17.30;99.90;;;;;;4931754;29;20028;-88
2022/10/03 08:58:20;;;;;;;18.25;7.35;;;17.30;99.90;;;;;;4931521;29;20048;-88
2022/10/03 09:01:06;;;;;;;18.77;6.97;;;17.40;99.90;;;;;;4931622;29;20035;-88
2022/10/03 09:04:03;;;;;;;15.93;7.15;;;17.40;99.90;;;;;;4931429;29;20043;-89
2022/10/03 09:07:04;;;;;;;17.00;6.40;;;17.50;99.90;;;;;;4932189;29;20133;-89
2022/10/03 09:10:09;;;;;;;20.83;7.53;;;17.50;99.90;;;;;;4893890;29;20126;-89
2022/10/03 09:12:46;;;;;;;16.52;7.35;;;17.60;99.90;;;;;;4908740;29;20048;-88
2022/10/03 09:15:48;;;;;;;25.13;8.70;;;17.70;99.90;;;;;;4931533;29;20027;-88
2022/10/03 09:18:44;;;;;;;24.02;8.73;;;17.70;99.90;;;;;;4931398;29;20032;-88
2022/10/03 09:21:43;;;;;;;21.10;8.75;;;17.80;99.90;;;;;;4931063;29;20030;-88
2022/10/03 09:24:09;;;;;;;23.90;9.45;;;;;;;;;;4931306;29;20058;-89
2022/10/03 09:26:59;;;;;;;18.55;8.85;;;17.80;99.90;;;;;;4931563;29;20095;-88
2022/10/03 09:29:59;;;;;;;21.17;8.85;;;17.90;99.90;;;;;;4930519;29;20036;-88
2022/10/03 09:33:12;;;;;;;21.17;8.63;;;17.90;99.90;;;;;;4931259;29;20122;-89
2022/10/03 09:36:03;;;;;;;24.08;8.38;;;18.00;99.90;;;;;;4932685;29;20563;-89
2022/10/03 09:39:07;;;;;;;16.88;8.00;;;18.00;99.90;;;;;;4925451;29;20035;-88
2022/10/03 09:41:54;;;;;;;29.13;9.18;;;18.10;99.90;;;;;;4930273;29;20020;-89
2022/10/03 09:44:47;;;;;;;26.38;10.68;;;18.10;99.90;;;;;;4931001;29;20507;-88
2022/10/03 09:47:28;;;;;;;23.58;9.63;;;18.20;99.90;;;;;;4930965;29;20031;-88
2022/10/03 09:50:03;;;;;;;23.48;9.90;;;18.30;99.90;;;;;;4935356;29;20055;-88
2022/10/03 09:53:03;;;;;;;29.42;10.75;;;18.20;99.90;;;;;;4936205;29;20063;-89
2022/10/03 09:55:47;;;;;;;33.97;11.07;;;18.40;99.90;;;;;;4916776;29;20046;-89
2022/10/03 09:58:38;;;;;;;24.10;9.45;;;18.40;99.90;;;;;;4915880;29;20032;-89
2022/10/03 10:01:33;;;;;;;23.08;8.90;;;18.50;99.90;;;;;;4917230;29;20028;-88
2022/10/03 10:04:21;;;;;;;21.92;8.45;;;18.50;99.90;;;;;;4917851;29;20488;-88
2022/10/03 10:07:17;;;;;;;27.05;7.75;;;18.60;99.90;;;;;;4915890;29;20072;-87
2022/10/03 10:10:04;;;;;;;19.30;7.20;;;18.60;99.90;;;;;;4915632;29;20067;-89
2022/10/03 10:12:46;;;;;;;16.65;6.93;;;18.50;99.90;;;;;;4925940;29;20496;-89
2022/10/03 10:15:34;;;;;;;18.10;6.60;;;18.60;99.90;;;;;;4933774;29;20405;-89
2022/10/03 10:18:31;;;;;;;19.98;6.30;;;18.60;99.90;;;;;;4933856;29;20028;-89
2022/10/03 10:21:15;;;;;;;20.65;7.63;;;18.60;99.90;;;;;;4934636;29;20035;-89
2022/10/03 10:24:00;;;;;;;18.48;5.90;;;18.70;99.90;;;;;;4934651;29;20091;-89
2022/10/03 10:26:44;;;;;;;23.52;5.88;;;18.90;99.90;;;;;;4934359;29;20059;-89
2022/10/03 10:29:21;;;;;;;21.85;6.18;;;19.10;99.90;;;;;;4937595;29;20035;-89
2022/10/03 10:32:14;;;;;;;17.15;5.78;;;19.20;99.90;;;;;;4938356;29;20424;-88
2022/10/03 10:34:58;;;;;;;14.35;5.63;;;19.20;99.90;;;;;;4936487;29;20074;-88
2022/10/03 10:37:39;;;;;;;10.00;5.13;;;19.30;99.90;;;;;;4934328;29;20039;-88
2022/10/03 10:40:36;;;;;;;15.73;5.40;;;19.30;99.90;;;;;;4934811;29;20023;-89
2022/10/03 10:43:14;;;;;;;17.23;6.03;;;19.30;99.90;;;;;;4934677;29;20558;-88
2022/10/03 10:46:12;;;;;;;14.18;5.18;;;19.30;99.90;;;;;;4934091;29;20043;-89
2022/10/03 10:49:06;;;;;;;23.08;5.00;;;19.20;99.90;;;;;;4928924;29;20086;-88
2022/10/03 10:51:52;;;;;;;12.75;4.25;;;19.10;99.90;;;;;;4935835;29;20024;-88
2022/10/03 10:54:40;;;;;;;10.50;4.10;;;19.10;99.90;;;;;;4934113;29;20074;-90
2022/10/03 10:57:38;;;;;;;16.35;4.07;;;19.20;99.90;;;;;;4923855;29;20091;-89
2022/10/03 11:00:18;;;;;;;9.68;4.13;;;19.30;99.90;;;;;;4930083;29;20036;-89
2022/10/03 11:03:18;;;;;;;11.13;3.95;;;19.40;99.90;;;;;;4914703;29;20081;-89
2022/10/03 11:06:06;;;;;;;19.50;3.92;;;19.50;99.90;;;;;;4933021;29;20044;-89
2022/10/03 11:08:59;;;;;;;16.13;4.80;;;19.50;99.90;;;;;;4933755;29;20033;-89
2022/10/03 11:11:38;;;;;;;9.55;4.53;;;19.50;99.90;;;;;;4933632;29;20032;-89
2022/10/03 11:14:28;;;;;;;15.00;5.22;;;19.50;99.90;;;;;;4934194;29;20032;-89
2022/10/03 11:17:31;;;;;;;11.68;5.35;;;19.60;99.90;;;;;;4933277;29;20484;-88
2022/10/03 11:20:15;;;;;;;10.52;5.15;;;19.50;99.90;;;;;;4933439;29;20407;-89
2022/10/03 11:23:09;;;;;;;17.65;5.78;;;19.50;99.90;;;;;;4933173;29;20551;-89
2022/10/03 11:25:44;;;;;;;15.30;6.35;;;19.50;99.90;;;;;;4933841;29;20035;-88
2022/10/03 11:28:36;;;;;;;13.90;5.70;;;19.40;99.90;;;;;;4933149;29;20032;-89
2022/10/03 11:31:13;;;;;;;10.55;5.32;;;19.30;99.90;;;;;;4934520;29;20031;-89
2022/10/03 11:34:16;;;;;;;16.55;6.55;;;19.30;99.90;;;;;;4932091;29;20080;-89
2022/10/03 11:37:22;;;;;;;12.85;5.78;;;19.30;99.90;;;;;;4932288;29;20130;-88
2022/10/03 11:40:27;;;;;;;9.35;5.22;;;19.50;99.90;;;;;;4933064;29;20059;-88
2022/10/03 11:43:20;;;;;;;14.55;5.07;;;19.60;99.90;;;;;;4932740;29;20032;-89
2022/10/03 11:45:53;;;;;;;20.90;5.97;;;19.60;99.90;;;;;;4922825;29;20044;-90
2022/10/03 11:48:38;;;;;;;13.65;5.75;;;19.70;99.90;;;;;;4932071;29;20028;-88
2022/10/03 11:51:38;;;;;;;10.80;5.63;;;19.80;99.90;;;;;;4930584;29;20028;-89
2022/10/03 11:54:27;;;;;;;10.98;5.72;;;20.10;99.90;;;;;;4924538;29;20079;-89
2022/10/03 11:57:05;;;;;;;11.27;4.60;;;20.10;99.90;;;;;;4913887;29;20111;-89
2022/10/03 11:59:52;;;;;;;13.25;6.18;;;20.10;99.90;;;;;;4924410;29;20027;-88
2022/10/03 12:02:55;;;;;;;13.40;6.38;;;20.00;99.90;;;;;;4933520;29;20031;-88
2022/10/03 12:05:51;;;;;;;19.02;8.75;;;19.80;99.90;;;;;;4914908;29;20063;-88
2022/10/03 12:11:42;;;;;;;22.13;11.35;;;19.90;99.90;;;;;;4931379;29;20036;-89
2022/10/03 12:14:08;;;;;;;25.13;11.85;;;20.00;99.90;;;;;;4931678;29;20034;-87
2022/10/03 12:16:59;;;;;;;33.65;13.30;;;20.00;99.90;;;;;;4922007;29;20122;-87
2022/10/03 12:20:01;;;;;;;27.63;13.55;;;20.00;99.90;;;;;;4921676;29;20539;-89
2022/10/03 12:22:32;;;;;;;21.05;11.45;;;20.00;99.90;;;;;;4933551;29;20031;-89
2022/10/03 12:25:13;;;;;;;16.70;8.50;;;19.90;99.90;;;;;;4932383;29;20043;-89
2022/10/03 12:27:57;;;;;;;13.93;8.30;;;19.80;99.90;;;;;;4934474;29;20058;-88
2022/10/03 12:30:30;;;;;;;19.58;7.85;;;19.90;99.90;;;;;;4932261;29;20030;-90
2022/10/03 12:33:11;;;;;;;15.15;7.45;;;20.00;99.90;;;;;;4935568;29;20043;-88
2022/10/03 12:35:52;;;;;;;18.52;6.70;;;21.10;99.90;;;;;;4933831;29;20036;-89
2022/10/03 12:38:23;;;;;;;18.02;6.93;;;20.20;99.90;;;;;;4931906;29;20027;-88
2022/10/03 12:41:28;;;;;;;14.00;6.78;;;20.30;99.90;;;;;;4933552;29;20038;-89
2022/10/03 12:44:12;;;;;;;10.88;5.78;;;20.30;99.90;;;;;;4917962;29;20485;-88
2022/10/03 12:46:49;;;;;;;13.23;6.80;;;20.10;99.90;;;;;;4931548;29;20462;-89
2022/10/03 12:49:37;;;;;;;11.23;6.45;;;20.10;99.90;;;;;;4933250;29;20035;-88
2022/10/03 12:52:16;;;;;;;22.30;7.03;;;20.10;99.90;;;;;;4932639;29;20043;-88
2022/10/03 12:55:13;;;;;;;14.02;8.07;;;20.10;99.90;;;;;;4932528;29;20515;-88
2022/10/03 12:58:11;;;;;;;11.88;6.15;;;20.20;99.90;;;;;;4934028;29;20396;-88
2022/10/03 13:01:27;;;;;;;9.50;5.32;;;20.30;99.90;;;;;;4890752;29;20122;-89
2022/10/03 13:04:28;;;;;;;18.42;5.88;;;20.60;99.90;;;;;;4871257;29;20093;-88
2022/10/03 13:07:04;;;;;;;14.10;6.20;;;20.50;99.90;;;;;;4927771;29;20487;-89
2022/10/03 13:09:59;;;;;;;11.90;7.10;;;20.60;99.90;;;;;;4939483;29;20082;-89
2022/10/03 13:12:44;;;;;;;11.43;6.50;;;20.50;99.90;;;;;;4930806;29;20432;-89
2022/10/03 13:15:36;;;;;;;10.43;5.82;;;20.30;99.90;;;;;;4933573;29;20032;-88
2022/10/03 13:18:19;;;;;;;17.42;5.05;;;20.20;99.90;;;;;;4930568;29;20088;-88
2022/10/03 13:20:59;;;;;;;7.65;5.15;;;20.30;99.90;;;;;;4913625;29;20481;-89
2022/10/03 13:23:39;;;;;;;13.07;5.20;;;20.60;99.90;;;;;;4912139;29;20088;-89
2022/10/03 13:26:20;;;;;;;8.77;4.93;;;20.60;99.90;;;;;;4913621;29;20051;-89
2022/10/03 13:29:14;;;;;;;12.45;5.25;;;20.40;99.90;;;;;;4912497;29;20032;-88
2022/10/03 13:31:55;;;;;;;10.15;5.13;;;20.50;99.90;;;;;;4912467;29;20035;-88
2022/10/03 13:34:29;;;;;;;8.43;4.80;;;20.70;99.90;;;;;;4913373;29;20500;-88
2022/10/03 13:37:13;;;;;;;10.65;4.93;;;20.50;99.90;;;;;;4912324;29;20028;-89
2022/10/03 13:39:44;;;;;;;19.17;5.05;;;20.50;99.90;;;;;;4913486;29;20115;-88
2022/10/03 13:42:21;;;;;;;5.90;3.90;;;20.60;99.90;;;;;;4912488;29;20101;-89
2022/10/03 13:45:02;;;;;;;6.07;4.00;;;20.60;99.90;;;;;;4913311;29;20047;-89
2022/10/03 13:47:42;;;;;;;7.05;3.65;;;20.60;99.90;;;;;;4913287;29;20063;-88
2022/10/03 13:50:14;;;;;;;9.05;3.70;;;20.50;99.90;;;;;;4927486;29;20027;-88
2022/10/03 13:52:49;;;;;;;8.15;3.55;;;20.80;99.90;;;;;;4929763;29;20481;-88
2022/10/03 13:55:41;;;;;;;7.38;3.20;;;20.50;99.90;;;;;;4931401;29;20031;-89
2022/10/03 13:58:22;;;;;;;9.63;3.50;;;20.50;99.90;;;;;;4930832;29;20019;-87
2022/10/03 14:01:06;;;;;;;6.40;3.15;;;20.50;99.90;;;;;;4930995;29;20027;-89
2022/10/03 14:03:49;;;;;;;7.00;2.88;;;20.60;99.90;;;;;;4927440;29;20032;-89
2022/10/03 14:06:37;;;;;;;7.75;3.85;;;20.60;99.90;;;;;;4912385;29;20040;-87
2022/10/03 14:09:31;;;;;;;7.07;2.72;;;20.60;99.90;;;;;;4914342;29;20035;-88
2022/10/03 14:12:24;;;;;;;5.75;2.40;;;20.60;99.90;;;;;;4913104;29;20060;-89
2022/10/03 14:15:02;;;;;;;3.20;2.20;;;20.60;99.90;;;;;;4929962;29;20036;-88
2022/10/03 14:17:38;;;;;;;12.65;2.85;;;20.60;99.90;;;;;;4930349;29;20107;-87
2022/10/03 14:20:05;;;;;;;4.82;2.28;;;;;;;;;;4925662;29;20039;-87
2022/10/03 14:22:49;;;;;;;5.50;2.13;;;20.40;99.90;;;;;;4928527;29;20020;-88
2022/10/03 14:25:27;;;;;;;4.75;2.17;;;20.30;99.90;;;;;;4914721;29;20067;-89
2022/10/03 14:27:53;;;;;;;;;;;20.40;99.90;;;;;;4925579;29;20083;-89
2022/10/03 14:30:50;;;;;;;7.45;2.80;;;20.40;99.90;;;;;;4930278;29;19911;-89
2022/10/03 14:33:19;;;;;;;6.50;3.10;;;20.80;99.90;;;;;;4918460;29;20524;-87
2022/10/03 14:36:12;;;;;;;7.25;3.00;;;20.90;99.90;;;;;;4916191;29;20116;-87
2022/10/03 14:39:22;;;;;;;3.85;2.50;;;21.10;99.90;;;;;;4925068;29;20378;-87
2022/10/03 14:41:51;;;;;;;7.82;2.63;;;21.00;99.90;;;;;;4913097;29;20515;-87
2022/10/03 14:44:35;;;;;;;7.38;2.40;;;20.80;99.90;;;;;;4927476;29;20031;-87
2022/10/03 14:47:07;;;;;;;3.83;2.47;;;20.90;99.90;;;;;;4933172;29;20040;-87